Archival Weather

Chicago O'Hare International

Chicago, Illinois (KORD)

Report from: Friday, August 11, 2023 10:51 AM CDT
Current time: Wednesday, April 24, 2024 1:03 PM CDT

Current weather – Weather history – Daily summaries
Weather forecast

Temperature24.4°C (75.9°F)
Dew point20.0°C (68.0°F)
Winds 6 kts (3.1 m/s, 6.9 mph) West-Southwest (240°)
Visibility10 mi. (16.1 km)
Clouds Few clouds 5,000 ft. (1,524 m)
Scattered clouds 17,000 ft. (5,182 m)
Ceiling: Broken clouds 25,000 ft. (7,620 m)
Altimeter29.75 in.Hg (1007 mB)
Relative humidity77 %
Density altitude1,621 ft. (494 m)
Sea-level pressure100.7 kPa (1007 mB, 29.73 in.Hg)
Remarks Automated weather observing station with precipitation discriminator
Flight conditions Visual Meteorological Conditions
Raw dataKORD 111551Z 24006KT 10SM FEW050 SCT170 BKN250 24/20 A2975 RMK AO2 SLP069 T02440200
An error has occurred. This application may no longer respond until reloaded. Reload 🗙